createdAt,value
2022-11-21T00:02:51.264Z,69.60
2022-11-21T00:05:50.284Z,69.60
2022-11-21T00:08:48.937Z,69.50
2022-11-21T00:11:47.319Z,69.50
2022-11-21T00:14:45.933Z,69.50
2022-11-21T00:17:44.484Z,69.50
2022-11-21T00:20:44.560Z,69.60
2022-11-21T00:23:43.818Z,69.60
2022-11-21T00:26:42.631Z,69.70
2022-11-21T00:29:40.982Z,69.90
2022-11-21T00:32:40.190Z,70.00
2022-11-21T00:35:38.721Z,70.40
2022-11-21T00:38:38.032Z,71.00
2022-11-21T00:41:36.461Z,71.00
2022-11-21T00:44:35.360Z,71.10
2022-11-21T00:47:33.681Z,71.20
2022-11-21T00:50:32.490Z,71.20
2022-11-21T00:53:31.429Z,71.20
2022-11-21T00:56:30.250Z,71.20
2022-11-21T00:59:28.879Z,71.20
2022-11-21T01:02:27.917Z,71.30
2022-11-21T01:05:26.264Z,71.30
2022-11-21T01:08:24.918Z,71.30
2022-11-21T01:11:23.873Z,71.40
2022-11-21T01:14:22.609Z,71.40
2022-11-21T01:17:20.967Z,71.40
2022-11-21T01:20:19.929Z,71.40
2022-11-21T01:23:18.225Z,71.50
2022-11-21T01:26:20.370Z,71.50
2022-11-21T01:29:19.293Z,71.50
2022-11-21T01:32:18.046Z,71.50
2022-11-21T01:35:16.500Z,71.50
2022-11-21T01:38:18.683Z,71.40
2022-11-21T01:41:20.178Z,71.40
2022-11-21T01:44:23.925Z,71.40
2022-11-21T01:47:23.231Z,71.50
2022-11-21T01:50:22.004Z,71.60
2022-11-21T01:53:20.719Z,71.50
2022-11-21T01:56:20.154Z,71.50
2022-11-21T01:59:37.496Z,71.40
2022-11-21T02:02:40.617Z,71.50
2022-11-21T02:05:40.499Z,71.60
2022-11-21T02:08:39.644Z,72.20
2022-11-21T02:11:45.136Z,71.70
2022-11-21T02:14:45.108Z,71.70
2022-11-21T02:17:43.443Z,71.60
2022-11-21T02:20:48.146Z,71.60
2022-11-21T02:24:06.465Z,71.50
2022-11-21T02:27:05.327Z,71.70
2022-11-21T02:30:06.348Z,71.80
2022-11-21T02:33:05.713Z,72.20
2022-11-21T02:36:04.957Z,72.50
2022-11-21T02:39:05.612Z,72.80
2022-11-21T02:42:15.625Z,72.80
2022-11-21T02:45:25.761Z,72.90
2022-11-21T02:48:24.314Z,73.00
2022-11-21T02:51:23.534Z,73.00
2022-11-21T02:54:21.831Z,73.10
2022-11-21T02:57:20.648Z,73.10
2022-11-21T03:00:20.064Z,73.00
2022-11-21T03:03:18.760Z,73.10
2022-11-21T03:06:17.051Z,73.10
2022-11-21T03:09:15.841Z,73.10
2022-11-21T03:12:14.337Z,73.10
2022-11-21T03:15:15.617Z,73.10
2022-11-21T03:18:14.172Z,73.00
2022-11-21T03:21:13.013Z,72.90
2022-11-21T03:24:11.655Z,72.90
2022-11-21T03:27:10.321Z,72.90
2022-11-21T03:30:10.225Z,72.90
2022-11-21T03:33:09.054Z,72.80
2022-11-21T03:36:07.837Z,72.80
2022-11-21T03:39:07.233Z,72.70
2022-11-21T03:42:06.007Z,72.70
2022-11-21T03:45:05.193Z,72.70
2022-11-21T03:48:03.568Z,72.70
2022-11-21T03:51:02.603Z,72.60
2022-11-21T03:54:01.434Z,72.50
2022-11-21T03:57:00.565Z,72.50
2022-11-21T03:59:59.127Z,72.40
2022-11-21T04:02:58.263Z,72.30
2022-11-21T04:05:56.919Z,72.20
2022-11-21T04:08:55.672Z,72.10
2022-11-21T04:11:53.973Z,72.00
2022-11-21T04:14:52.623Z,71.90
2022-11-21T04:17:51.238Z,71.90
2022-11-21T04:20:50.189Z,71.80
2022-11-21T04:23:48.792Z,71.80
2022-11-21T04:26:47.754Z,71.70
2022-11-21T04:29:46.124Z,71.70
2022-11-21T04:32:44.789Z,71.60
2022-11-21T04:35:45.307Z,71.60
2022-11-21T04:38:44.060Z,71.50
2022-11-21T04:41:42.760Z,71.50
2022-11-21T04:44:41.641Z,71.40
2022-11-21T04:47:41.453Z,71.40
2022-11-21T04:50:40.417Z,71.40
2022-11-21T04:53:42.864Z,71.30
2022-11-21T04:56:42.210Z,71.30
2022-11-21T04:59:40.514Z,71.30
2022-11-21T05:02:39.650Z,71.30
2022-11-21T05:05:38.330Z,71.30
2022-11-21T05:08:37.271Z,71.30
2022-11-21T05:11:50.810Z,71.30
2022-11-21T05:14:49.851Z,71.40
2022-11-21T05:17:48.546Z,71.40
2022-11-21T05:20:47.503Z,71.30
2022-11-21T05:23:46.032Z,71.30
2022-11-21T05:26:45.101Z,71.30
2022-11-21T05:29:43.582Z,71.30
2022-11-21T05:32:43.722Z,71.30
2022-11-21T05:35:43.656Z,71.30
2022-11-21T05:38:42.542Z,71.30
2022-11-21T05:41:40.975Z,71.30
2022-11-21T05:44:39.678Z,71.90
2022-11-21T05:47:42.955Z,71.30
2022-11-21T05:50:41.989Z,71.30
2022-11-21T05:53:40.438Z,71.30
2022-11-21T05:56:39.218Z,71.30
2022-11-21T05:59:37.514Z,71.30
2022-11-21T06:02:51.734Z,71.30
2022-11-21T06:05:50.083Z,71.30
2022-11-21T06:08:48.710Z,71.30
2022-11-21T06:11:47.210Z,71.30
2022-11-21T06:14:46.010Z,71.30
2022-11-21T06:17:44.335Z,71.30
2022-11-21T06:20:43.107Z,71.40
2022-11-21T06:23:41.463Z,71.30
2022-11-21T06:26:40.157Z,71.30
2022-11-21T06:29:39.164Z,71.30
2022-11-21T06:32:38.936Z,71.40
2022-11-21T06:35:39.561Z,71.30
2022-11-21T06:38:38.483Z,71.40
2022-11-21T06:41:36.983Z,71.40
2022-11-21T06:44:35.894Z,71.40
2022-11-21T06:47:36.104Z,71.30
2022-11-21T06:50:35.456Z,71.30
2022-11-21T06:53:34.815Z,71.40
2022-11-21T06:56:34.099Z,71.40
2022-11-21T06:59:32.390Z,71.40
2022-11-21T07:02:31.026Z,71.60
2022-11-21T07:05:30.412Z,71.80
2022-11-21T07:08:31.386Z,71.90
2022-11-21T07:11:29.727Z,71.90
2022-11-21T07:14:28.784Z,71.90
2022-11-21T07:17:27.252Z,71.80
2022-11-21T07:20:25.954Z,71.90
2022-11-21T07:23:24.276Z,71.90
2022-11-21T07:26:22.976Z,71.90
2022-11-21T07:29:21.246Z,72.00
2022-11-21T07:32:19.974Z,72.00
2022-11-21T07:35:18.702Z,72.10
2022-11-21T07:38:17.715Z,72.10
2022-11-21T07:41:16.052Z,72.00
2022-11-21T07:44:15.017Z,72.10
2022-11-21T07:47:13.400Z,72.00
2022-11-21T07:50:13.401Z,72.10
2022-11-21T07:53:12.435Z,72.00
2022-11-21T07:56:11.202Z,72.00
2022-11-21T07:59:09.828Z,72.10
2022-11-21T08:02:08.708Z,72.20
2022-11-21T08:05:07.409Z,72.20
2022-11-21T08:08:08.253Z,72.10
2022-11-21T08:11:07.513Z,72.20
2022-11-21T08:14:06.227Z,72.20
2022-11-21T08:17:05.679Z,72.10
2022-11-21T08:20:05.092Z,72.10
2022-11-21T08:23:03.925Z,72.10
2022-11-21T08:26:02.668Z,72.10
2022-11-21T08:29:01.853Z,72.10
2022-11-21T08:32:00.535Z,72.10
2022-11-21T08:34:58.889Z,72.70
2022-11-21T08:38:00.480Z,72.30
2022-11-21T08:41:17.605Z,72.30
2022-11-21T08:44:16.671Z,72.20
2022-11-21T08:47:15.183Z,72.30
2022-11-21T08:50:13.852Z,72.30
2022-11-21T08:53:12.211Z,72.20
2022-11-21T08:56:11.254Z,72.40
2022-11-21T08:59:09.630Z,72.40
2022-11-21T09:02:11.910Z,72.30
2022-11-21T09:05:10.864Z,72.20
2022-11-21T09:08:09.983Z,72.20
2022-11-21T09:11:10.424Z,72.20
2022-11-21T09:14:24.563Z,72.20
2022-11-21T09:17:38.588Z,72.20
2022-11-21T09:20:42.440Z,72.20
2022-11-21T09:23:40.856Z,72.20
2022-11-21T09:26:39.514Z,72.10
2022-11-21T09:29:37.868Z,72.10
2022-11-21T09:32:37.501Z,72.00
2022-11-21T09:35:36.185Z,72.00
2022-11-21T09:38:35.212Z,72.00
2022-11-21T09:41:53.348Z,72.10
2022-11-21T09:45:05.635Z,72.10
2022-11-21T09:48:09.906Z,72.10
2022-11-21T09:51:14.606Z,72.10
2022-11-21T09:54:23.916Z,72.10
2022-11-21T09:57:25.147Z,72.10
2022-11-21T10:00:26.319Z,72.20
2022-11-21T10:03:31.206Z,72.20
2022-11-21T10:06:34.019Z,72.40
2022-11-21T10:09:48.221Z,72.50
2022-11-21T10:13:14.379Z,72.80
2022-11-21T10:16:43.703Z,72.80
2022-11-21T10:20:07.129Z,72.80
2022-11-21T10:23:29.528Z,72.70
2022-11-21T10:26:53.036Z,72.70
2022-11-21T10:29:58.710Z,72.60
2022-11-21T10:33:00.338Z,72.60
2022-11-21T10:36:09.804Z,72.60
2022-11-21T10:39:28.717Z,72.50
2022-11-21T10:42:36.410Z,72.50
2022-11-21T10:45:34.921Z,72.50
2022-11-21T10:48:33.774Z,72.50
2022-11-21T10:52:02.762Z,72.40
2022-11-21T10:55:10.127Z,72.40
2022-11-21T10:58:20.221Z,72.40
2022-11-21T11:01:35.630Z,72.40
2022-11-21T11:04:42.842Z,72.30
2022-11-21T11:08:01.834Z,72.30
2022-11-21T11:11:07.996Z,72.30
2022-11-21T11:14:13.658Z,72.20
2022-11-21T11:17:15.590Z,72.10
2022-11-21T11:20:34.089Z,72.10
2022-11-21T11:23:32.410Z,72.10
2022-11-21T11:26:32.283Z,72.20
2022-11-21T11:29:32.932Z,72.20
2022-11-21T11:32:31.668Z,72.20
2022-11-21T11:35:34.181Z,72.10
2022-11-21T11:38:35.597Z,72.00
2022-11-21T11:42:16.559Z,72.00
2022-11-21T11:45:40.012Z,71.90
2022-11-21T11:49:10.991Z,72.00
2022-11-21T11:52:05.356Z,71.90
2022-11-21T11:55:08.612Z,72.20
2022-11-21T11:58:16.843Z,72.20
2022-11-21T12:01:22.285Z,72.40
2022-11-21T12:04:25.732Z,72.40
2022-11-21T12:08:33.284Z,72.60
2022-11-21T12:11:09.815Z,72.70
2022-11-21T12:14:38.631Z,72.90
2022-11-21T12:17:48.987Z,73.00
2022-11-21T12:21:19.306Z,73.00
2022-11-21T12:24:21.436Z,73.00
2022-11-21T12:27:29.215Z,73.20
2022-11-21T12:30:48.889Z,73.20
2022-11-21T12:33:59.973Z,73.50
2022-11-21T12:37:26.616Z,73.50
2022-11-21T12:40:51.188Z,73.50
2022-11-21T12:43:59.995Z,73.40
2022-11-21T12:47:29.059Z,73.40
2022-11-21T12:50:52.093Z,73.40
2022-11-21T12:54:16.058Z,73.50
2022-11-21T12:57:16.886Z,73.50
2022-11-21T13:00:26.352Z,73.60
2022-11-21T13:03:52.449Z,73.60
2022-11-21T13:06:52.277Z,73.70
2022-11-21T13:09:54.454Z,73.80
2022-11-21T13:13:14.025Z,73.80
2022-11-21T13:16:37.091Z,73.70
2022-11-21T13:19:47.186Z,73.90
2022-11-21T13:22:52.288Z,73.90
2022-11-21T13:25:50.824Z,74.10
2022-11-21T13:28:49.740Z,74.10
2022-11-21T13:31:48.900Z,74.40
2022-11-21T13:34:47.626Z,74.70
2022-11-21T13:38:03.792Z,75.00
2022-11-21T13:41:17.657Z,74.80
2022-11-21T13:44:41.235Z,74.90
2022-11-21T13:47:57.578Z,74.90
2022-11-21T13:51:31.509Z,75.20
2022-11-21T13:54:58.039Z,75.00
2022-11-21T13:58:31.875Z,74.90
2022-11-21T14:02:00.661Z,74.90
2022-11-21T14:05:22.010Z,75.00
2022-11-21T14:08:24.304Z,74.90
2022-11-21T14:11:37.477Z,75.10
2022-11-21T14:14:43.486Z,75.20
2022-11-21T14:17:58.320Z,75.20
2022-11-21T14:20:59.275Z,75.00
2022-11-21T14:24:06.579Z,74.90
2022-11-21T14:27:09.221Z,74.80
2022-11-21T14:30:25.957Z,74.60
2022-11-21T14:33:30.525Z,74.50
2022-11-21T14:36:30.788Z,74.50
2022-11-21T14:39:39.671Z,74.40
2022-11-21T14:42:40.693Z,74.30
2022-11-21T14:45:49.725Z,74.10
2022-11-21T14:48:48.356Z,74.10
2022-11-21T14:51:51.421Z,74.10
2022-11-21T14:58:17.453Z,74.10
2022-11-21T15:01:26.215Z,74.10
2022-11-21T15:04:31.676Z,74.10
2022-11-21T15:07:37.343Z,74.10
2022-11-21T15:10:36.916Z,74.00
2022-11-21T15:16:57.788Z,74.00
2022-11-21T15:20:20.897Z,74.00
2022-11-21T15:23:32.530Z,74.10
2022-11-21T15:26:36.053Z,74.00
2022-11-21T15:29:34.758Z,73.80
2022-11-21T15:32:33.179Z,73.80
2022-11-21T15:35:44.310Z,73.80
2022-11-21T15:38:50.514Z,73.70
2022-11-21T15:41:49.207Z,73.70
2022-11-21T15:45:04.762Z,73.60
2022-11-21T15:48:03.504Z,73.50
2022-11-21T15:51:02.026Z,73.50
2022-11-21T15:54:01.223Z,73.40
2022-11-21T15:57:00.732Z,73.40
2022-11-21T15:57:13.406Z,74.10
2022-11-21T15:59:59.555Z,73.30
2022-11-21T16:02:58.299Z,73.30
2022-11-21T16:05:56.942Z,73.30
2022-11-21T16:08:55.896Z,73.20
2022-11-21T16:11:55.040Z,73.20
2022-11-21T16:14:53.508Z,73.20
2022-11-21T16:17:52.584Z,73.10
2022-11-21T16:20:51.382Z,73.10
2022-11-21T16:23:50.355Z,73.00
2022-11-21T16:26:50.170Z,73.00
2022-11-21T16:29:48.909Z,72.90
2022-11-21T16:32:47.576Z,72.90
2022-11-21T16:35:46.935Z,72.80
2022-11-21T16:38:45.499Z,72.80
2022-11-21T16:41:46.122Z,72.80
2022-11-21T16:44:44.600Z,72.80
2022-11-21T16:47:48.561Z,72.70
2022-11-21T16:50:47.800Z,72.70
2022-11-21T16:53:48.439Z,72.70
2022-11-21T16:56:47.096Z,72.60
2022-11-21T16:59:47.205Z,72.60
2022-11-21T17:02:46.984Z,72.50
2022-11-21T17:05:58.698Z,72.50
2022-11-21T17:08:57.202Z,72.30
2022-11-21T17:11:58.297Z,72.30
2022-11-21T17:14:56.929Z,72.30
2022-11-21T17:17:56.388Z,72.30
2022-11-21T17:20:54.718Z,72.20
2022-11-21T17:23:54.090Z,72.80
2022-11-21T17:26:52.388Z,72.30
2022-11-21T17:29:51.620Z,72.20
2022-11-21T17:32:50.125Z,72.20
2022-11-21T17:35:48.881Z,72.30
2022-11-21T17:38:48.553Z,72.20
2022-11-21T17:41:47.449Z,72.20
2022-11-21T17:44:47.033Z,72.20
2022-11-21T17:47:47.143Z,72.20
2022-11-21T17:50:45.586Z,72.20
2022-11-21T17:53:47.253Z,72.20
2022-11-21T17:56:48.329Z,72.20
2022-11-21T17:59:51.415Z,72.10
2022-11-21T18:02:50.058Z,72.20
2022-11-21T18:05:51.743Z,72.20
2022-11-21T18:08:50.861Z,72.30
2022-11-21T18:11:49.536Z,72.20
2022-11-21T18:14:47.964Z,72.20
2022-11-21T18:17:47.051Z,72.20
2022-11-21T18:20:45.723Z,72.20
2022-11-21T18:23:45.083Z,72.10
2022-11-21T18:26:43.448Z,72.10
2022-11-21T18:29:42.104Z,72.10
2022-11-21T18:32:40.396Z,72.10
2022-11-21T18:35:41.045Z,72.10
2022-11-21T18:38:48.794Z,72.00
2022-11-21T18:41:48.262Z,72.10
2022-11-21T18:44:47.093Z,72.10
2022-11-21T18:47:47.876Z,72.30
2022-11-21T18:50:47.105Z,72.30
2022-11-21T18:53:50.383Z,72.70
2022-11-21T18:56:48.982Z,72.10
2022-11-21T18:59:47.688Z,72.10
2022-11-21T19:02:46.035Z,72.10
2022-11-21T19:05:44.806Z,72.10
2022-11-21T19:08:43.312Z,72.00
2022-11-21T19:11:42.329Z,71.90
2022-11-21T19:14:40.700Z,72.00
2022-11-21T19:17:39.357Z,72.00
2022-11-21T19:20:39.757Z,71.90
2022-11-21T19:23:40.960Z,71.90
2022-11-21T19:26:39.291Z,71.90
2022-11-21T19:29:38.145Z,71.80
2022-11-21T19:32:37.578Z,71.90
2022-11-21T19:35:38.543Z,72.00
2022-11-21T19:38:36.830Z,72.00
2022-11-21T19:41:35.519Z,71.90
2022-11-21T19:44:34.831Z,71.90
2022-11-21T19:47:34.460Z,71.90
2022-11-21T19:50:32.987Z,71.80
2022-11-21T19:53:36.960Z,71.80
2022-11-21T19:56:36.076Z,71.80
2022-11-21T19:59:34.921Z,71.80
2022-11-21T20:02:33.515Z,71.70
2022-11-21T20:05:32.200Z,71.70
2022-11-21T20:08:30.523Z,72.00
2022-11-21T20:11:31.218Z,71.60
2022-11-21T20:14:29.925Z,72.20
2022-11-21T20:17:28.624Z,71.50
2022-11-21T20:20:26.997Z,71.50
2022-11-21T20:23:25.742Z,71.50
2022-11-21T20:26:24.929Z,71.50
2022-11-21T20:29:23.691Z,71.50
2022-11-21T20:32:22.087Z,71.50
2022-11-21T20:35:20.756Z,71.40
2022-11-21T20:38:24.163Z,71.40
2022-11-21T20:41:25.638Z,71.40
2022-11-21T20:45:11.711Z,71.30
2022-11-21T20:47:42.756Z,71.30
2022-11-21T20:51:34.949Z,71.30
2022-11-21T20:54:03.354Z,71.30
2022-11-21T20:57:02.724Z,71.20
2022-11-21T21:00:01.417Z,71.20
2022-11-21T21:03:00.039Z,71.10
2022-11-21T21:06:05.584Z,71.10
2022-11-21T21:09:05.462Z,71.00
2022-11-21T21:12:05.480Z,71.00
2022-11-21T21:15:04.161Z,71.00
2022-11-21T21:18:02.839Z,71.00
2022-11-21T21:21:17.285Z,70.90
2022-11-21T21:24:16.408Z,71.00
2022-11-21T21:27:14.843Z,70.90
2022-11-21T21:30:13.593Z,70.90
2022-11-21T21:33:13.897Z,70.90
2022-11-21T21:36:15.301Z,70.80
2022-11-21T21:39:13.928Z,70.70
2022-11-21T21:42:12.919Z,70.70
2022-11-21T21:45:11.676Z,70.60
2022-11-21T21:48:10.688Z,70.60
2022-11-21T21:51:18.956Z,70.60
2022-11-21T21:54:19.473Z,70.60
2022-11-21T21:57:17.939Z,70.60
2022-11-21T22:00:16.906Z,70.50
2022-11-21T22:03:15.752Z,70.50
2022-11-21T22:06:18.137Z,70.50
2022-11-21T22:09:17.071Z,70.50
2022-11-21T22:12:16.528Z,70.50
2022-11-21T22:15:14.929Z,70.50
2022-11-21T22:18:13.819Z,70.40
2022-11-21T22:21:16.711Z,70.40
2022-11-21T22:24:25.273Z,70.40
2022-11-21T22:27:24.674Z,70.40
2022-11-21T22:30:23.297Z,70.40
2022-11-21T22:33:21.724Z,70.40
2022-11-21T22:36:20.451Z,70.40
2022-11-21T22:39:18.866Z,70.40
2022-11-21T22:42:17.953Z,70.50
2022-11-21T22:45:16.290Z,70.50
2022-11-21T22:48:15.511Z,70.40
2022-11-21T22:51:14.917Z,70.40
2022-11-21T22:54:13.787Z,70.40
2022-11-21T22:57:12.341Z,70.60
2022-11-21T23:00:12.068Z,70.50
2022-11-21T23:03:10.388Z,70.40
2022-11-21T23:06:12.169Z,70.40
2022-11-21T23:09:11.152Z,70.40
2022-11-21T23:12:09.830Z,70.40
2022-11-21T23:15:08.543Z,70.40
2022-11-21T23:18:07.099Z,70.30
2022-11-21T23:21:06.576Z,70.30
2022-11-21T23:24:05.859Z,70.30
2022-11-21T23:27:05.145Z,70.30
2022-11-21T23:30:03.875Z,70.20
2022-11-21T23:33:02.814Z,70.30
2022-11-21T23:36:01.950Z,70.20
2022-11-21T23:39:00.851Z,70.20
2022-11-21T23:41:59.543Z,70.20
2022-11-21T23:44:57.985Z,70.10
2022-11-21T23:47:56.694Z,70.10
2022-11-21T23:50:55.758Z,70.10
2022-11-21T23:53:54.622Z,70.00
2022-11-21T23:56:53.218Z,70.00
2022-11-21T23:59:51.876Z,70.00
